Impacts TAF Board INFO
FOR SITUATIONAL AWARENESS. NOT TO BE USED FOR FLIGHT PLANNING PURPOSES.
IDs:

KMCO - Orlando Intl, FL, US

Issued at 0252 UTC 17 Jul 2018
Updated at 0401 UTC 17 Jul 2018
Potential Impact None Slight Moderate High
Time0353Z 17/05Z 17/06Z 17/07Z 17/08Z 17/09Z 17/10Z 17/11Z 17/12Z 17/13Z 17/14Z 17/15Z 17/16Z 17/17Z>>
Type OBS PRVL PRVL PRVL PRVL PRVL PRVL PRVL PRVL PRVL PRVL PRVL PRVL PRVL
VIS 10 >6 >6 >6 >6 >6 >6 >6 >6 >6 >6 >6 >6 >6
CIG -- 250 250 250 250 250 250 250 250 -- -- -- -- --
Cover SCT BKN BKN BKN BKN BKN BKN BKN BKN SCT SCT SCT SCT SCT
FltCat VFR VFR VFR VFR VFR VFR VFR VFR VFR VFR VFR VFR VFR VFR
WX -- -- -- -- -- -- -- -- -- -- -- -- -- --
WDir 190 VRB VRB VRB VRB VRB VRB VRB VRB 220 220 220 220 220
WSpd 3 3 3 3 3 3 3 3 3 5 5 5 5 5
WGst -- -- -- -- -- -- -- -- -- -- -- -- -- --

Raw TAF
KMCO 170252Z 1703/1806 VRB03KT P6SM BKN250
  FM171300 22005KT P6SM SCT035 SCT250
  FM171900 24008KT P6SM VCTS SCT050CB BKN250
  TEMPO 1719/1721 3SM TSRA BKN030CB
  FM180100 24005KT P6SM FEW050 SCT080 BKN250
  FM180400 20003KT P6SM SCT250


Raw METAR
KMCO 170353Z 19003KT 10SM SCT037 SCT250 26/24 A3009 RMK AO2 SLP187 T02610239
KMCO 170253Z 21003KT 10SM FEW055 SCT250 26/25 A3009 RMK AO2 SLP188 T02610250 53014
KMCO 170153Z 19003KT 10SM FEW060 BKN250 27/24 A3007 RMK AO2 SLP182 T02720244

METAR Board
Radar Display
Forecast Discussion

FOR SITUATIONAL AWARENESS. NOT TO BE USED FOR FLIGHT PLANNING PURPOSES.